sensor_id;sensor_type;location;lat;lon;timestamp;P1;durP1;ratioP1;P2;durP2;ratioP2
2674;SDS011;1347;42.122;24.746;2022-11-11T00:00:15;86.63;;;66.60;;
2674;SDS011;1347;42.122;24.746;2022-11-11T00:02:42;84.90;;;65.77;;
2674;SDS011;1347;42.122;24.746;2022-11-11T00:05:09;95.10;;;64.23;;
2674;SDS011;1347;42.122;24.746;2022-11-11T00:07:36;87.73;;;63.77;;
2674;SDS011;1347;42.122;24.746;2022-11-11T00:10:03;84.30;;;64.53;;
2674;SDS011;1347;42.122;24.746;2022-11-11T00:12:31;87.80;;;65.40;;
2674;SDS011;1347;42.122;24.746;2022-11-11T00:14:59;90.83;;;63.90;;
2674;SDS011;1347;42.122;24.746;2022-11-11T00:17:26;85.20;;;63.60;;
2674;SDS011;1347;42.122;24.746;2022-11-11T00:20:10;84.97;;;63.17;;
2674;SDS011;1347;42.122;24.746;2022-11-11T00:22:55;83.60;;;66.07;;
2674;SDS011;1347;42.122;24.746;2022-11-11T00:25:44;88.07;;;64.40;;
2674;SDS011;1347;42.122;24.746;2022-11-11T00:28:11;87.53;;;62.80;;
2674;SDS011;1347;42.122;24.746;2022-11-11T00:30:39;90.13;;;65.73;;
2674;SDS011;1347;42.122;24.746;2022-11-11T00:33:06;89.03;;;63.17;;
2674;SDS011;1347;42.122;24.746;2022-11-11T00:35:33;78.97;;;60.70;;
2674;SDS011;1347;42.122;24.746;2022-11-11T00:38:17;91.73;;;62.30;;
2674;SDS011;1347;42.122;24.746;2022-11-11T00:40:58;90.13;;;62.13;;
2674;SDS011;1347;42.122;24.746;2022-11-11T00:43:25;81.57;;;63.00;;
2674;SDS011;1347;42.122;24.746;2022-11-11T00:45:54;82.23;;;61.37;;
2674;SDS011;1347;42.122;24.746;2022-11-11T00:48:42;89.43;;;59.80;;
2674;SDS011;1347;42.122;24.746;2022-11-11T00:51:26;77.83;;;57.93;;
2674;SDS011;1347;42.122;24.746;2022-11-11T00:53:53;84.87;;;61.03;;
2674;SDS011;1347;42.122;24.746;2022-11-11T00:56:20;81.70;;;61.97;;
2674;SDS011;1347;42.122;24.746;2022-11-11T00:58:47;88.43;;;62.87;;
2674;SDS011;1347;42.122;24.746;2022-11-11T01:01:16;85.40;;;63.00;;
2674;SDS011;1347;42.122;24.746;2022-11-11T01:03:43;80.63;;;56.43;;
2674;SDS011;1347;42.122;24.746;2022-11-11T01:06:10;89.37;;;61.07;;
2674;SDS011;1347;42.122;24.746;2022-11-11T01:08:38;79.50;;;59.80;;
2674;SDS011;1347;42.122;24.746;2022-11-11T01:11:16;89.03;;;59.40;;
2674;SDS011;1347;42.122;24.746;2022-11-11T01:13:44;85.10;;;59.80;;
2674;SDS011;1347;42.122;24.746;2022-11-11T01:16:12;80.40;;;60.80;;
2674;SDS011;1347;42.122;24.746;2022-11-11T01:18:42;73.43;;;55.70;;
2674;SDS011;1347;42.122;24.746;2022-11-11T01:21:09;80.93;;;59.47;;
2674;SDS011;1347;42.122;24.746;2022-11-11T01:23:38;76.70;;;57.00;;
2674;SDS011;1347;42.122;24.746;2022-11-11T01:26:08;83.10;;;58.47;;
2674;SDS011;1347;42.122;24.746;2022-11-11T01:28:37;70.30;;;53.47;;
2674;SDS011;1347;42.122;24.746;2022-11-11T01:31:04;74.90;;;55.50;;
2674;SDS011;1347;42.122;24.746;2022-11-11T01:33:33;74.47;;;57.73;;
2674;SDS011;1347;42.122;24.746;2022-11-11T01:36:05;78.40;;;56.47;;
2674;SDS011;1347;42.122;24.746;2022-11-11T01:38:34;72.83;;;52.87;;
2674;SDS011;1347;42.122;24.746;2022-11-11T01:41:01;76.47;;;58.43;;
2674;SDS011;1347;42.122;24.746;2022-11-11T01:43:50;78.30;;;54.03;;
2674;SDS011;1347;42.122;24.746;2022-11-11T01:46:20;75.27;;;55.97;;
2674;SDS011;1347;42.122;24.746;2022-11-11T01:48:53;73.57;;;53.23;;
2674;SDS011;1347;42.122;24.746;2022-11-11T01:51:43;73.43;;;54.50;;
2674;SDS011;1347;42.122;24.746;2022-11-11T01:54:16;71.77;;;54.60;;
2674;SDS011;1347;42.122;24.746;2022-11-11T01:56:47;73.20;;;55.87;;
2674;SDS011;1347;42.122;24.746;2022-11-11T01:59:17;74.57;;;56.23;;
2674;SDS011;1347;42.122;24.746;2022-11-11T02:01:44;80.57;;;50.37;;
2674;SDS011;1347;42.122;24.746;2022-11-11T02:04:11;72.77;;;52.43;;
2674;SDS011;1347;42.122;24.746;2022-11-11T02:06:58;79.23;;;53.57;;
2674;SDS011;1347;42.122;24.746;2022-11-11T02:09:28;75.40;;;55.30;;
2674;SDS011;1347;42.122;24.746;2022-11-11T02:11:55;68.97;;;52.73;;
2674;SDS011;1347;42.122;24.746;2022-11-11T02:14:44;63.37;;;51.20;;
2674;SDS011;1347;42.122;24.746;2022-11-11T02:17:13;73.77;;;53.77;;
2674;SDS011;1347;42.122;24.746;2022-11-11T02:19:44;70.80;;;53.07;;
2674;SDS011;1347;42.122;24.746;2022-11-11T02:22:19;65.03;;;52.40;;
2674;SDS011;1347;42.122;24.746;2022-11-11T02:24:54;66.07;;;53.70;;
2674;SDS011;1347;42.122;24.746;2022-11-11T02:27:22;72.53;;;52.67;;
2674;SDS011;1347;42.122;24.746;2022-11-11T02:29:52;69.17;;;52.37;;
2674;SDS011;1347;42.122;24.746;2022-11-11T02:32:22;76.57;;;55.30;;
2674;SDS011;1347;42.122;24.746;2022-11-11T02:34:49;68.97;;;53.87;;
2674;SDS011;1347;42.122;24.746;2022-11-11T02:37:16;72.30;;;53.97;;
2674;SDS011;1347;42.122;24.746;2022-11-11T02:39:46;64.90;;;49.70;;
2674;SDS011;1347;42.122;24.746;2022-11-11T02:42:17;76.73;;;57.57;;
2674;SDS011;1347;42.122;24.746;2022-11-11T02:44:46;71.47;;;51.80;;
2674;SDS011;1347;42.122;24.746;2022-11-11T02:47:13;68.27;;;53.67;;
2674;SDS011;1347;42.122;24.746;2022-11-11T02:49:40;63.70;;;51.63;;
2674;SDS011;1347;42.122;24.746;2022-11-11T02:52:07;74.43;;;53.93;;
2674;SDS011;1347;42.122;24.746;2022-11-11T02:54:34;61.23;;;50.53;;
2674;SDS011;1347;42.122;24.746;2022-11-11T02:57:01;68.80;;;52.70;;
2674;SDS011;1347;42.122;24.746;2022-11-11T02:59:36;65.10;;;50.60;;
2674;SDS011;1347;42.122;24.746;2022-11-11T03:02:04;63.07;;;51.80;;
2674;SDS011;1347;42.122;24.746;2022-11-11T03:04:31;62.53;;;48.70;;
2674;SDS011;1347;42.122;24.746;2022-11-11T03:06:58;67.40;;;49.27;;
2674;SDS011;1347;42.122;24.746;2022-11-11T03:09:25;61.93;;;48.70;;
2674;SDS011;1347;42.122;24.746;2022-11-11T03:11:52;62.50;;;50.13;;
2674;SDS011;1347;42.122;24.746;2022-11-11T03:14:19;65.63;;;51.30;;
2674;SDS011;1347;42.122;24.746;2022-11-11T03:16:47;65.37;;;47.83;;
2674;SDS011;1347;42.122;24.746;2022-11-11T03:19:32;66.03;;;45.00;;
2674;SDS011;1347;42.122;24.746;2022-11-11T03:21:59;65.20;;;48.87;;
2674;SDS011;1347;42.122;24.746;2022-11-11T03:24:25;63.00;;;43.90;;
2674;SDS011;1347;42.122;24.746;2022-11-11T03:27:13;59.03;;;43.30;;
2674;SDS011;1347;42.122;24.746;2022-11-11T03:29:38;58.20;;;44.20;;
2674;SDS011;1347;42.122;24.746;2022-11-11T03:32:08;64.50;;;47.43;;
2674;SDS011;1347;42.122;24.746;2022-11-11T03:34:35;65.10;;;47.93;;
2674;SDS011;1347;42.122;24.746;2022-11-11T03:37:03;53.83;;;42.57;;
2674;SDS011;1347;42.122;24.746;2022-11-11T03:39:47;56.93;;;41.80;;
2674;SDS011;1347;42.122;24.746;2022-11-11T03:42:14;67.00;;;45.90;;
2674;SDS011;1347;42.122;24.746;2022-11-11T03:44:41;62.33;;;46.30;;
2674;SDS011;1347;42.122;24.746;2022-11-11T03:47:09;66.03;;;47.73;;
2674;SDS011;1347;42.122;24.746;2022-11-11T03:49:36;57.60;;;45.50;;
2674;SDS011;1347;42.122;24.746;2022-11-11T03:52:03;59.70;;;44.83;;
2674;SDS011;1347;42.122;24.746;2022-11-11T03:54:30;64.07;;;47.50;;
2674;SDS011;1347;42.122;24.746;2022-11-11T03:56:57;63.80;;;44.30;;
2674;SDS011;1347;42.122;24.746;2022-11-11T03:59:38;59.87;;;44.90;;
2674;SDS011;1347;42.122;24.746;2022-11-11T04:02:05;60.43;;;46.23;;
2674;SDS011;1347;42.122;24.746;2022-11-11T04:04:50;68.30;;;45.83;;
2674;SDS011;1347;42.122;24.746;2022-11-11T04:07:34;63.97;;;46.33;;
2674;SDS011;1347;42.122;24.746;2022-11-11T04:10:15;57.90;;;46.07;;
2674;SDS011;1347;42.122;24.746;2022-11-11T04:12:48;57.60;;;43.77;;
2674;SDS011;1347;42.122;24.746;2022-11-11T04:15:35;65.23;;;44.63;;
2674;SDS011;1347;42.122;24.746;2022-11-11T04:18:19;63.60;;;45.70;;
2674;SDS011;1347;42.122;24.746;2022-11-11T04:21:09;55.30;;;41.90;;
2674;SDS011;1347;42.122;24.746;2022-11-11T04:23:53;55.47;;;43.07;;
2674;SDS011;1347;42.122;24.746;2022-11-11T04:26:20;64.20;;;45.30;;
2674;SDS011;1347;42.122;24.746;2022-11-11T04:28:46;67.33;;;44.80;;
2674;SDS011;1347;42.122;24.746;2022-11-11T04:31:30;68.23;;;46.00;;
2674;SDS011;1347;42.122;24.746;2022-11-11T04:33:57;60.23;;;46.07;;
2674;SDS011;1347;42.122;24.746;2022-11-11T04:36:24;58.70;;;44.90;;
2674;SDS011;1347;42.122;24.746;2022-11-11T04:38:51;64.40;;;46.17;;
2674;SDS011;1347;42.122;24.746;2022-11-11T04:41:35;64.97;;;44.57;;
2674;SDS011;1347;42.122;24.746;2022-11-11T04:44:03;61.30;;;44.57;;
2674;SDS011;1347;42.122;24.746;2022-11-11T04:46:47;57.30;;;44.80;;
2674;SDS011;1347;42.122;24.746;2022-11-11T04:49:14;69.47;;;46.50;;
2674;SDS011;1347;42.122;24.746;2022-11-11T04:51:42;66.10;;;47.30;;
2674;SDS011;1347;42.122;24.746;2022-11-11T04:54:26;67.20;;;48.10;;
2674;SDS011;1347;42.122;24.746;2022-11-11T04:56:53;63.83;;;48.20;;
2674;SDS011;1347;42.122;24.746;2022-11-11T04:59:19;63.67;;;48.73;;
2674;SDS011;1347;42.122;24.746;2022-11-11T05:01:46;70.70;;;47.77;;
2674;SDS011;1347;42.122;24.746;2022-11-11T05:04:30;62.90;;;44.57;;
2674;SDS011;1347;42.122;24.746;2022-11-11T05:06:58;65.67;;;48.17;;
2674;SDS011;1347;42.122;24.746;2022-11-11T05:09:42;65.63;;;49.17;;
2674;SDS011;1347;42.122;24.746;2022-11-11T05:12:09;68.30;;;48.93;;
2674;SDS011;1347;42.122;24.746;2022-11-11T05:14:36;73.93;;;50.77;;
2674;SDS011;1347;42.122;24.746;2022-11-11T05:17:20;62.90;;;50.47;;
2674;SDS011;1347;42.122;24.746;2022-11-11T05:20:05;64.90;;;47.37;;
2674;SDS011;1347;42.122;24.746;2022-11-11T05:22:52;65.10;;;48.97;;
2674;SDS011;1347;42.122;24.746;2022-11-11T05:25:19;72.27;;;48.67;;
2674;SDS011;1347;42.122;24.746;2022-11-11T05:27:51;67.00;;;49.80;;
2674;SDS011;1347;42.122;24.746;2022-11-11T05:30:18;66.00;;;49.23;;
2674;SDS011;1347;42.122;24.746;2022-11-11T05:32:47;68.70;;;48.63;;
2674;SDS011;1347;42.122;24.746;2022-11-11T05:35:14;69.70;;;47.27;;
2674;SDS011;1347;42.122;24.746;2022-11-11T05:37:42;74.57;;;52.07;;
2674;SDS011;1347;42.122;24.746;2022-11-11T05:40:30;73.23;;;50.90;;
2674;SDS011;1347;42.122;24.746;2022-11-11T05:42:57;67.43;;;52.83;;
2674;SDS011;1347;42.122;24.746;2022-11-11T05:45:24;88.07;;;56.60;;
2674;SDS011;1347;42.122;24.746;2022-11-11T05:47:51;64.93;;;49.30;;
2674;SDS011;1347;42.122;24.746;2022-11-11T05:50:18;64.03;;;49.57;;
2674;SDS011;1347;42.122;24.746;2022-11-11T05:52:48;69.73;;;50.53;;
2674;SDS011;1347;42.122;24.746;2022-11-11T05:55:15;64.27;;;48.13;;
2674;SDS011;1347;42.122;24.746;2022-11-11T05:57:43;73.03;;;48.70;;
2674;SDS011;1347;42.122;24.746;2022-11-11T06:00:11;66.73;;;49.10;;
2674;SDS011;1347;42.122;24.746;2022-11-11T06:02:38;67.17;;;50.00;;
2674;SDS011;1347;42.122;24.746;2022-11-11T06:05:05;62.70;;;49.77;;
2674;SDS011;1347;42.122;24.746;2022-11-11T06:07:36;74.07;;;53.23;;
2674;SDS011;1347;42.122;24.746;2022-11-11T06:10:04;67.57;;;50.03;;
2674;SDS011;1347;42.122;24.746;2022-11-11T06:12:51;74.03;;;52.30;;
2674;SDS011;1347;42.122;24.746;2022-11-11T06:15:34;84.37;;;53.33;;
2674;SDS011;1347;42.122;24.746;2022-11-11T06:18:02;75.10;;;50.90;;
2674;SDS011;1347;42.122;24.746;2022-11-11T06:20:30;68.40;;;50.60;;
2674;SDS011;1347;42.122;24.746;2022-11-11T06:22:59;73.03;;;46.97;;
2674;SDS011;1347;42.122;24.746;2022-11-11T06:25:27;66.43;;;44.40;;
2674;SDS011;1347;42.122;24.746;2022-11-11T06:28:14;54.60;;;41.67;;
2674;SDS011;1347;42.122;24.746;2022-11-11T06:30:42;57.43;;;41.07;;
2674;SDS011;1347;42.122;24.746;2022-11-11T06:33:09;49.87;;;38.63;;
2674;SDS011;1347;42.122;24.746;2022-11-11T06:35:37;50.53;;;36.43;;
2674;SDS011;1347;42.122;24.746;2022-11-11T06:38:05;45.10;;;34.40;;
2674;SDS011;1347;42.122;24.746;2022-11-11T06:40:33;47.47;;;36.70;;
2674;SDS011;1347;42.122;24.746;2022-11-11T06:42:59;46.50;;;36.70;;
2674;SDS011;1347;42.122;24.746;2022-11-11T06:45:28;57.10;;;37.90;;
2674;SDS011;1347;42.122;24.746;2022-11-11T06:47:57;43.30;;;34.93;;
2674;SDS011;1347;42.122;24.746;2022-11-11T06:50:24;45.40;;;35.77;;
2674;SDS011;1347;42.122;24.746;2022-11-11T06:52:51;43.67;;;34.27;;
2674;SDS011;1347;42.122;24.746;2022-11-11T06:55:18;42.50;;;34.00;;
2674;SDS011;1347;42.122;24.746;2022-11-11T06:57:45;44.53;;;32.83;;
2674;SDS011;1347;42.122;24.746;2022-11-11T07:00:12;45.23;;;32.67;;
2674;SDS011;1347;42.122;24.746;2022-11-11T07:02:41;37.37;;;29.77;;
2674;SDS011;1347;42.122;24.746;2022-11-11T07:05:08;39.80;;;29.77;;
2674;SDS011;1347;42.122;24.746;2022-11-11T07:07:35;32.20;;;26.47;;
2674;SDS011;1347;42.122;24.746;2022-11-11T07:10:02;31.47;;;24.80;;
2674;SDS011;1347;42.122;24.746;2022-11-11T07:12:31;30.80;;;25.63;;
2674;SDS011;1347;42.122;24.746;2022-11-11T07:14:58;34.20;;;26.10;;
2674;SDS011;1347;42.122;24.746;2022-11-11T07:17:25;27.03;;;24.13;;
2674;SDS011;1347;42.122;24.746;2022-11-11T07:19:53;29.47;;;26.27;;
2674;SDS011;1347;42.122;24.746;2022-11-11T07:22:20;27.63;;;24.67;;
2674;SDS011;1347;42.122;24.746;2022-11-11T07:24:47;29.07;;;24.73;;
2674;SDS011;1347;42.122;24.746;2022-11-11T07:27:14;28.33;;;22.43;;
2674;SDS011;1347;42.122;24.746;2022-11-11T07:29:41;26.43;;;23.67;;
2674;SDS011;1347;42.122;24.746;2022-11-11T07:32:07;26.27;;;23.60;;
2674;SDS011;1347;42.122;24.746;2022-11-11T07:34:34;26.20;;;23.37;;
2674;SDS011;1347;42.122;24.746;2022-11-11T07:37:03;22.97;;;20.57;;
2674;SDS011;1347;42.122;24.746;2022-11-11T07:39:29;22.80;;;20.60;;
2674;SDS011;1347;42.122;24.746;2022-11-11T07:41:56;23.00;;;20.57;;
2674;SDS011;1347;42.122;24.746;2022-11-11T07:44:23;20.60;;;18.43;;
2674;SDS011;1347;42.122;24.746;2022-11-11T07:46:50;22.60;;;20.03;;
2674;SDS011;1347;42.122;24.746;2022-11-11T07:49:17;21.57;;;19.33;;
2674;SDS011;1347;42.122;24.746;2022-11-11T07:51:44;25.30;;;21.67;;
2674;SDS011;1347;42.122;24.746;2022-11-11T07:54:12;25.77;;;20.97;;
2674;SDS011;1347;42.122;24.746;2022-11-11T07:56:39;29.00;;;22.67;;
2674;SDS011;1347;42.122;24.746;2022-11-11T07:59:06;25.23;;;21.70;;
2674;SDS011;1347;42.122;24.746;2022-11-11T08:01:33;23.63;;;21.20;;
2674;SDS011;1347;42.122;24.746;2022-11-11T08:04:00;25.83;;;22.97;;
2674;SDS011;1347;42.122;24.746;2022-11-11T08:06:27;25.20;;;20.03;;
2674;SDS011;1347;42.122;24.746;2022-11-11T08:08:53;25.37;;;22.57;;
2674;SDS011;1347;42.122;24.746;2022-11-11T08:11:22;27.23;;;22.20;;
2674;SDS011;1347;42.122;24.746;2022-11-11T08:14:02;23.40;;;21.00;;
2674;SDS011;1347;42.122;24.746;2022-11-11T08:16:29;26.83;;;21.10;;
2674;SDS011;1347;42.122;24.746;2022-11-11T08:18:56;31.80;;;22.77;;
2674;SDS011;1347;42.122;24.746;2022-11-11T08:21:23;26.03;;;20.57;;
2674;SDS011;1347;42.122;24.746;2022-11-11T08:23:50;33.80;;;21.40;;
2674;SDS011;1347;42.122;24.746;2022-11-11T08:26:18;24.27;;;21.40;;
2674;SDS011;1347;42.122;24.746;2022-11-11T08:28:47;27.20;;;21.87;;
2674;SDS011;1347;42.122;24.746;2022-11-11T08:31:16;24.17;;;21.37;;
2674;SDS011;1347;42.122;24.746;2022-11-11T08:33:43;24.80;;;20.70;;
2674;SDS011;1347;42.122;24.746;2022-11-11T08:36:10;27.30;;;23.67;;
2674;SDS011;1347;42.122;24.746;2022-11-11T08:38:37;31.47;;;22.97;;
2674;SDS011;1347;42.122;24.746;2022-11-11T08:41:04;25.13;;;22.07;;
2674;SDS011;1347;42.122;24.746;2022-11-11T08:43:33;30.57;;;23.33;;
2674;SDS011;1347;42.122;24.746;2022-11-11T08:46:02;29.17;;;22.80;;
2674;SDS011;1347;42.122;24.746;2022-11-11T08:48:30;26.67;;;23.50;;
2674;SDS011;1347;42.122;24.746;2022-11-11T08:50:57;24.67;;;21.20;;
2674;SDS011;1347;42.122;24.746;2022-11-11T08:53:26;30.70;;;24.40;;
2674;SDS011;1347;42.122;24.746;2022-11-11T08:55:53;28.97;;;23.30;;
2674;SDS011;1347;42.122;24.746;2022-11-11T08:58:20;33.27;;;23.87;;
2674;SDS011;1347;42.122;24.746;2022-11-11T09:00:47;25.63;;;21.33;;
2674;SDS011;1347;42.122;24.746;2022-11-11T09:03:15;29.50;;;21.93;;
2674;SDS011;1347;42.122;24.746;2022-11-11T09:05:42;32.67;;;23.93;;
2674;SDS011;1347;42.122;24.746;2022-11-11T09:08:11;22.97;;;20.23;;
2674;SDS011;1347;42.122;24.746;2022-11-11T09:10:39;25.47;;;20.97;;
2674;SDS011;1347;42.122;24.746;2022-11-11T09:13:06;22.77;;;19.60;;
2674;SDS011;1347;42.122;24.746;2022-11-11T09:15:33;25.83;;;18.80;;
2674;SDS011;1347;42.122;24.746;2022-11-11T09:18:00;24.80;;;20.13;;
2674;SDS011;1347;42.122;24.746;2022-11-11T09:20:28;23.57;;;19.97;;
2674;SDS011;1347;42.122;24.746;2022-11-11T09:22:55;22.17;;;19.87;;
2674;SDS011;1347;42.122;24.746;2022-11-11T09:25:22;22.90;;;20.60;;
2674;SDS011;1347;42.122;24.746;2022-11-11T09:27:53;24.13;;;20.20;;
2674;SDS011;1347;42.122;24.746;2022-11-11T09:30:21;23.33;;;19.57;;
2674;SDS011;1347;42.122;24.746;2022-11-11T09:32:48;21.50;;;19.30;;
2674;SDS011;1347;42.122;24.746;2022-11-11T09:35:15;23.80;;;20.47;;
2674;SDS011;1347;42.122;24.746;2022-11-11T09:37:47;24.87;;;20.03;;
2674;SDS011;1347;42.122;24.746;2022-11-11T09:40:19;26.53;;;20.90;;
2674;SDS011;1347;42.122;24.746;2022-11-11T09:42:48;25.27;;;21.37;;
2674;SDS011;1347;42.122;24.746;2022-11-11T09:45:27;24.80;;;20.93;;
2674;SDS011;1347;42.122;24.746;2022-11-11T09:48:01;23.33;;;20.67;;
2674;SDS011;1347;42.122;24.746;2022-11-11T09:50:34;23.53;;;18.80;;
2674;SDS011;1347;42.122;24.746;2022-11-11T09:53:09;21.77;;;19.50;;
2674;SDS011;1347;42.122;24.746;2022-11-11T09:55:43;28.00;;;20.63;;
2674;SDS011;1347;42.122;24.746;2022-11-11T09:58:16;38.27;;;21.40;;
2674;SDS011;1347;42.122;24.746;2022-11-11T10:00:47;21.97;;;19.67;;
2674;SDS011;1347;42.122;24.746;2022-11-11T10:03:21;26.00;;;20.73;;
2674;SDS011;1347;42.122;24.746;2022-11-11T10:05:51;26.17;;;20.10;;
2674;SDS011;1347;42.122;24.746;2022-11-11T10:08:28;23.37;;;20.07;;
2674;SDS011;1347;42.122;24.746;2022-11-11T10:10:59;23.60;;;19.93;;
2674;SDS011;1347;42.122;24.746;2022-11-11T10:13:28;26.10;;;19.27;;
2674;SDS011;1347;42.122;24.746;2022-11-11T10:15:57;30.23;;;20.03;;
2674;SDS011;1347;42.122;24.746;2022-11-11T10:18:37;26.57;;;18.30;;
2674;SDS011;1347;42.122;24.746;2022-11-11T10:21:14;23.63;;;16.63;;
2674;SDS011;1347;42.122;24.746;2022-11-11T10:23:48;25.67;;;18.50;;
2674;SDS011;1347;42.122;24.746;2022-11-11T10:26:24;21.37;;;16.60;;
2674;SDS011;1347;42.122;24.746;2022-11-11T10:29:01;21.57;;;18.23;;
2674;SDS011;1347;42.122;24.746;2022-11-11T10:31:30;21.70;;;18.97;;
2674;SDS011;1347;42.122;24.746;2022-11-11T10:33:59;22.33;;;17.97;;
2674;SDS011;1347;42.122;24.746;2022-11-11T10:36:29;22.33;;;18.40;;
2674;SDS011;1347;42.122;24.746;2022-11-11T10:38:59;19.13;;;15.80;;
2674;SDS011;1347;42.122;24.746;2022-11-11T10:41:29;23.70;;;18.40;;
2674;SDS011;1347;42.122;24.746;2022-11-11T10:44:00;20.90;;;16.30;;
2674;SDS011;1347;42.122;24.746;2022-11-11T10:46:28;18.50;;;16.47;;
2674;SDS011;1347;42.122;24.746;2022-11-11T10:48:59;19.50;;;17.03;;
2674;SDS011;1347;42.122;24.746;2022-11-11T10:51:32;20.37;;;16.43;;
2674;SDS011;1347;42.122;24.746;2022-11-11T10:54:06;17.90;;;16.00;;
2674;SDS011;1347;42.122;24.746;2022-11-11T10:56:39;25.17;;;18.33;;
2674;SDS011;1347;42.122;24.746;2022-11-11T10:59:13;22.07;;;17.60;;
2674;SDS011;1347;42.122;24.746;2022-11-11T11:01:47;22.57;;;15.93;;
2674;SDS011;1347;42.122;24.746;2022-11-11T11:04:21;20.63;;;16.33;;
2674;SDS011;1347;42.122;24.746;2022-11-11T11:06:54;20.33;;;15.30;;
2674;SDS011;1347;42.122;24.746;2022-11-11T11:09:28;21.40;;;15.50;;
2674;SDS011;1347;42.122;24.746;2022-11-11T11:12:02;25.67;;;18.10;;
2674;SDS011;1347;42.122;24.746;2022-11-11T11:14:35;19.77;;;16.20;;
2674;SDS011;1347;42.122;24.746;2022-11-11T11:17:06;19.17;;;17.13;;
2674;SDS011;1347;42.122;24.746;2022-11-11T11:19:38;26.37;;;19.37;;
2674;SDS011;1347;42.122;24.746;2022-11-11T11:22:05;18.67;;;16.37;;
2674;SDS011;1347;42.122;24.746;2022-11-11T11:24:33;19.13;;;16.53;;
2674;SDS011;1347;42.122;24.746;2022-11-11T11:27:02;19.77;;;16.13;;
2674;SDS011;1347;42.122;24.746;2022-11-11T11:29:32;17.43;;;15.27;;
2674;SDS011;1347;42.122;24.746;2022-11-11T11:32:10;18.43;;;14.97;;
2674;SDS011;1347;42.122;24.746;2022-11-11T11:34:48;23.50;;;16.50;;
2674;SDS011;1347;42.122;24.746;2022-11-11T11:37:16;26.00;;;16.80;;
2674;SDS011;1347;42.122;24.746;2022-11-11T11:39:46;18.50;;;16.20;;
2674;SDS011;1347;42.122;24.746;2022-11-11T11:42:26;21.50;;;18.03;;
2674;SDS011;1347;42.122;24.746;2022-11-11T11:44:57;21.10;;;17.57;;
2674;SDS011;1347;42.122;24.746;2022-11-11T11:47:42;22.03;;;19.37;;
2674;SDS011;1347;42.122;24.746;2022-11-11T11:50:26;22.30;;;19.73;;
2674;SDS011;1347;42.122;24.746;2022-11-11T11:53:03;24.70;;;18.47;;
2674;SDS011;1347;42.122;24.746;2022-11-11T11:55:42;19.60;;;15.63;;
2674;SDS011;1347;42.122;24.746;2022-11-11T11:58:18;19.63;;;14.30;;
2674;SDS011;1347;42.122;24.746;2022-11-11T12:00:57;21.73;;;16.33;;
2674;SDS011;1347;42.122;24.746;2022-11-11T12:03:38;19.87;;;16.30;;
2674;SDS011;1347;42.122;24.746;2022-11-11T12:06:19;19.17;;;15.60;;
2674;SDS011;1347;42.122;24.746;2022-11-11T12:08:55;25.17;;;21.27;;
2674;SDS011;1347;42.122;24.746;2022-11-11T12:11:34;22.37;;;17.70;;
2674;SDS011;1347;42.122;24.746;2022-11-11T12:14:11;19.77;;;16.70;;
2674;SDS011;1347;42.122;24.746;2022-11-11T12:16:56;19.00;;;16.00;;
2674;SDS011;1347;42.122;24.746;2022-11-11T12:19:34;19.17;;;15.90;;
2674;SDS011;1347;42.122;24.746;2022-11-11T12:22:24;22.50;;;16.70;;
2674;SDS011;1347;42.122;24.746;2022-11-11T12:24:58;19.30;;;16.83;;
2674;SDS011;1347;42.122;24.746;2022-11-11T12:27:41;24.30;;;19.50;;
2674;SDS011;1347;42.122;24.746;2022-11-11T12:30:18;23.77;;;18.27;;
2674;SDS011;1347;42.122;24.746;2022-11-11T12:33:05;22.73;;;18.50;;
2674;SDS011;1347;42.122;24.746;2022-11-11T12:35:54;25.73;;;17.70;;
2674;SDS011;1347;42.122;24.746;2022-11-11T12:38:33;24.03;;;17.93;;
2674;SDS011;1347;42.122;24.746;2022-11-11T12:41:17;20.50;;;18.37;;
2674;SDS011;1347;42.122;24.746;2022-11-11T12:43:54;21.60;;;17.30;;
2674;SDS011;1347;42.122;24.746;2022-11-11T12:46:28;23.57;;;20.90;;
2674;SDS011;1347;42.122;24.746;2022-11-11T12:49:07;23.87;;;18.60;;
2674;SDS011;1347;42.122;24.746;2022-11-11T12:51:55;17.17;;;15.47;;
2674;SDS011;1347;42.122;24.746;2022-11-11T12:54:28;19.20;;;16.60;;
2674;SDS011;1347;42.122;24.746;2022-11-11T12:57:08;17.10;;;14.30;;
2674;SDS011;1347;42.122;24.746;2022-11-11T12:59:57;16.97;;;13.60;;
2674;SDS011;1347;42.122;24.746;2022-11-11T13:02:36;15.70;;;12.87;;
2674;SDS011;1347;42.122;24.746;2022-11-11T13:05:18;14.27;;;12.57;;
2674;SDS011;1347;42.122;24.746;2022-11-11T13:07:55;16.43;;;13.20;;
2674;SDS011;1347;42.122;24.746;2022-11-11T13:10:40;18.43;;;14.10;;
2674;SDS011;1347;42.122;24.746;2022-11-11T13:13:18;17.37;;;13.43;;
2674;SDS011;1347;42.122;24.746;2022-11-11T13:16:01;15.80;;;13.87;;
2674;SDS011;1347;42.122;24.746;2022-11-11T13:18:37;18.57;;;13.03;;
2674;SDS011;1347;42.122;24.746;2022-11-11T13:21:10;17.20;;;14.03;;
2674;SDS011;1347;42.122;24.746;2022-11-11T13:23:41;18.63;;;16.67;;
2674;SDS011;1347;42.122;24.746;2022-11-11T13:26:16;20.50;;;17.90;;
2674;SDS011;1347;42.122;24.746;2022-11-11T13:28:52;17.40;;;13.90;;
2674;SDS011;1347;42.122;24.746;2022-11-11T13:31:30;21.23;;;16.87;;
2674;SDS011;1347;42.122;24.746;2022-11-11T13:34:02;20.10;;;17.00;;
2674;SDS011;1347;42.122;24.746;2022-11-11T13:36:32;22.67;;;16.00;;
2674;SDS011;1347;42.122;24.746;2022-11-11T13:39:15;18.17;;;16.27;;
2674;SDS011;1347;42.122;24.746;2022-11-11T13:41:51;22.87;;;17.63;;
2674;SDS011;1347;42.122;24.746;2022-11-11T13:44:21;20.63;;;16.87;;
2674;SDS011;1347;42.122;24.746;2022-11-11T13:46:54;19.77;;;16.90;;
2674;SDS011;1347;42.122;24.746;2022-11-11T13:49:28;23.23;;;16.70;;
2674;SDS011;1347;42.122;24.746;2022-11-11T13:51:59;21.37;;;18.10;;
2674;SDS011;1347;42.122;24.746;2022-11-11T13:54:28;22.10;;;17.30;;
2674;SDS011;1347;42.122;24.746;2022-11-11T13:57:00;22.90;;;17.80;;
2674;SDS011;1347;42.122;24.746;2022-11-11T13:59:32;21.40;;;18.87;;
2674;SDS011;1347;42.122;24.746;2022-11-11T14:02:24;24.13;;;18.73;;
2674;SDS011;1347;42.122;24.746;2022-11-11T14:05:15;24.73;;;16.73;;
2674;SDS011;1347;42.122;24.746;2022-11-11T14:07:47;25.33;;;16.47;;
2674;SDS011;1347;42.122;24.746;2022-11-11T14:13:34;20.33;;;16.50;;
2674;SDS011;1347;42.122;24.746;2022-11-11T14:16:03;21.20;;;18.37;;
2674;SDS011;1347;42.122;24.746;2022-11-11T14:18:35;21.73;;;16.70;;
2674;SDS011;1347;42.122;24.746;2022-11-11T14:21:06;25.17;;;19.03;;
2674;SDS011;1347;42.122;24.746;2022-11-11T14:23:35;29.73;;;20.20;;
2674;SDS011;1347;42.122;24.746;2022-11-11T14:26:25;23.43;;;18.77;;
2674;SDS011;1347;42.122;24.746;2022-11-11T14:28:55;25.90;;;20.10;;
2674;SDS011;1347;42.122;24.746;2022-11-11T14:31:31;21.57;;;18.53;;
2674;SDS011;1347;42.122;24.746;2022-11-11T14:34:32;24.90;;;18.30;;
2674;SDS011;1347;42.122;24.746;2022-11-11T14:37:14;22.47;;;17.77;;
2674;SDS011;1347;42.122;24.746;2022-11-11T14:39:50;23.43;;;17.93;;
2674;SDS011;1347;42.122;24.746;2022-11-11T14:51:40;20.57;;;17.93;;
2674;SDS011;1347;42.122;24.746;2022-11-11T14:54:16;24.47;;;18.03;;
2674;SDS011;1347;42.122;24.746;2022-11-11T14:57:02;25.23;;;20.60;;
2674;SDS011;1347;42.122;24.746;2022-11-11T14:59:32;22.83;;;18.10;;
2674;SDS011;1347;42.122;24.746;2022-11-11T15:02:00;29.63;;;21.70;;
2674;SDS011;1347;42.122;24.746;2022-11-11T15:04:35;25.40;;;20.77;;
2674;SDS011;1347;42.122;24.746;2022-11-11T15:07:04;26.13;;;19.93;;
2674;SDS011;1347;42.122;24.746;2022-11-11T15:09:56;25.60;;;19.13;;
2674;SDS011;1347;42.122;24.746;2022-11-11T15:12:50;25.20;;;20.07;;
2674;SDS011;1347;42.122;24.746;2022-11-11T15:15:34;26.97;;;21.70;;